Latest Coastal Weather Observations for Samuel Hill

IDQ60701

Issued at 4:05 am EST Tuesday 21 October 2014 (issued every 10 minutes, with the page automatically refreshed every 10 minutes)

About coastal observations | Map of coastal stations | Coastal observations for QLD | Marine services | Other Formats
Station Details ID: 033308 Name: SAMUEL HILL AERO Lat: -22.74 Lon: 150.66 Height: 31.0 m
Data from the previous 72 hours. | See also: Recent months at Samuel Hill
Date/Time
EST
Temp

°C
Wind Pressure Rain
since 9am
mm
Weather Cloud Vis
km
Sea
Height
m
Swell
Dir
 
Speed
knots
Gust
knots
hPa Trend Height
m
Period
s
Dir
21/04:00am 14.8 SSE 4 7 1021.2 - 0.0 - Partly cloudy 10 - - - -
21/03:30am 13.3 CALM 0 0 1021.1 - 0.0 - Partly cloudy 10 - - - -
21/03:00am 13.1 CALM 0 0 1021.0 - 0.0 - Mostly clear 10 - - - -
21/02:30am 13.1 W 1 4 1021.1 - 0.0 - Partly cloudy 10 - - - -
21/02:00am 12.8 WSW 2 5 1021.1 - 0.0 - - 10 - - - -
21/01:30am 12.7 WSW 5 6 1021.4 - 0.0 - - 10 - - - -
21/01:00am 12.1 CALM 0 0 1021.7 - 0.0 - - 10 - - - -
21/12:30am 12.3 CALM 0 0 1022.3 - 0.0 - - 10 - - - -
21/12:00am 12.8 CALM 0 1 1022.8 - 0.0 - - 10 - - - -
 
Date/Time
EST
Temp

°C
Wind Pressure Rain
since 9am
mm
Weather Cloud Vis
km
Sea
Height
m
Swell
Dir
 
Speed
knots
Gust
knots
hPa Trend Height
m
Period
s
Dir
20/11:30pm 12.2 CALM 0 4 1023.2 - 0.0 - - 10 - - - -
20/11:00pm 12.6 CALM 0 0 1023.5 - 0.0 - - 10 - - - -
20/10:30pm 13.1 CALM 0 3 1023.7 - 0.0 - - 10 - - - -
20/10:00pm 14.5 SW 1 4 1023.7 - 0.0 - - 10 - - - -
20/09:30pm 14.5 SE 1 3 1023.6 - 0.0 - - 10 - - - -
20/09:00pm 16.0 SE 3 4 1023.4 - 0.0 - - 10 - - - -
20/08:30pm 16.4 ESE 3 4 1023.0 - 0.0 - - 10 - - - -
20/08:00pm 18.5 ESE 5 6 1022.6 - 0.0 - - 10 - - - -
20/07:30pm 17.9 E 4 6 1022.1 - 0.0 - - 10 - - - -
20/07:00pm 18.9 E 4 5 1021.6 - 0.0 - - 10 - - - -
20/06:30pm 19.7 E 4 6 1021.4 - 0.0 - - 10 - - - -
20/06:00pm 20.6 E 5 8 1021.0 - 0.0 - - 10 - - - -
20/05:30pm 21.8 ESE 7 13 1020.6 - 0.0 - - 10 - - - -
20/05:00pm 22.4 E 9 14 1020.2 - 0.0 - - 10 - - - -
20/04:30pm 22.4 E 9 14 1020.1 - 0.0 - Partly cloudy 10 - - - -
20/04:00pm 22.6 ESE 10 18 1020.0 - 0.0 - Partly cloudy 10 - - - -
20/03:30pm 24.2 ESE 11 18 1019.9 - 0.0 - Partly cloudy 10 - - - -
20/03:00pm 23.8 ESE 11 18 1020.1 - 0.0 - Mostly clear 10 - - - -
20/02:30pm 24.7 SE 11 18 1020.2 - 0.0 - Partly cloudy 10 - - - -
20/02:00pm 24.1 SE 11 17 1020.5 - 0.0 - Partly cloudy 10 - - - -
20/01:30pm 24.6 ESE 11 19 1020.9 - 0.0 - - 10 - - - -
20/01:00pm 24.9 ESE 10 17 1021.2 - 0.0 - Partly cloudy 10 - - - -
20/12:30pm 25.0 SE 11 16 1021.5 - 0.0 - - 10 - - - -
20/12:00pm 25.0 ESE 11 17 1021.9 - 0.0 - - 10 - - - -
20/11:30am 25.2 E 11 19 1022.2 - 0.0 - - 10 - - - -
20/11:00am 24.5 ESE 11 18 1022.7 - 0.0 - Partly cloudy 10 - - - -
20/10:30am 24.4 SE 11 17 1023.1 - 0.0 - Partly cloudy 10 - - - -
20/10:00am 24.4 SE 10 21 1023.5 - 0.0 - Partly cloudy 10 - - - -
20/09:30am 23.8 SE 11 17 1023.8 - 0.0 - - 10 - - - -
20/09:00am 24.0 SE 11 18 1023.9 - 0.0 - Mostly clear 10 - - - -
20/08:30am 23.0 SE 12 17 1024.0 - 0.0 - Partly cloudy 10 - - - -
20/08:00am 22.8 SE 10 16 1023.9 - 0.0 - Partly cloudy 10 - - - -
20/07:30am 22.5 ESE 10 16 1023.7 - 0.0 - Partly cloudy 10 - - - -
20/07:00am 20.4 ESE 4 8 1023.5 - 0.0 - - 10 - - - -
20/06:30am 16.4 SSE 4 5 1023.2 - 0.0 - - 10 - - - -
20/06:00am 12.1 CALM 0 0 1022.8 - 0.0 - - 10 - - - -
20/05:30am 11.7 CALM 0 0 1022.4 - 0.0 - - 10 - - - -
20/05:00am 12.6 WSW 3 5 1022.3 - 0.0 - Partly cloudy 10 - - - -
20/04:30am 12.6 CALM 0 0 1022.0 - 0.0 - - 10 - - - -
20/04:00am 13.1 WSW 5 5 1021.8 - 0.0 - - 10 - - - -
20/03:30am 12.7 SW 1 3 1021.5 - 0.0 - - 10 - - - -
20/03:00am 11.8 CALM 0 0 1021.5 - 0.0 - - 10 - - - -
20/02:30am 12.4 CALM 0 0 1021.6 - 0.0 - - 10 - - - -
20/02:00am 13.4 CALM 0 0 1021.8 - 0.0 - - 10 - - - -
20/01:30am 14.6 SSE 2 4 1022.0 - 0.0 - - 10 - - - -
20/01:00am 16.5 SSE 5 6 1022.3 - 0.0 - - 10 - - - -
20/12:30am 18.7 SE 5 7 1022.6 - 0.0 - - 10 - - - -
20/12:00am 19.3 ESE 6 10 1023.0 - 0.0 - - 10 - - - -
 
Date/Time
EST
Temp

°C
Wind Pressure Rain
since 9am
mm
Weather Cloud Vis
km
Sea
Height
m
Swell
Dir
 
Speed
knots
Gust
knots
hPa Trend Height
m
Period
s
Dir
19/11:30pm 19.0 ESE 6 8 1023.3 - 0.0 - - 10 - - - -
19/11:00pm 19.0 SE 5 7 1023.6 - 0.0 - - 10 - - - -
19/10:30pm 19.7 ESE 5 8 1023.9 - 0.0 - - 10 - - - -
19/10:00pm 19.5 ESE 5 7 1024.1 - 0.0 - - 10 - - - -
19/09:30pm 20.1 SE 5 9 1023.9 - 0.0 - - 10 - - - -
19/09:00pm 19.7 SE 4 7 1023.8 - 0.0 - - 10 - - - -
19/08:30pm 20.2 SSE 4 6 1023.5 - 0.0 - - 10 - - - -
19/08:00pm 20.5 E 7 12 1023.2 - 0.0 - - 10 - - - -
19/07:30pm 20.6 E 7 13 1023.0 - 0.0 - - 10 - - - -
19/07:00pm 20.1 SE 5 7 1023.0 - 0.0 - - 10 - - - -
19/06:30pm 20.5 ESE 4 8 1022.8 - 0.0 - - 10 - - - -
19/06:00pm 21.1 SE 6 11 1022.7 - 0.0 - - 10 - - - -
19/05:30pm 22.0 ESE 9 15 1022.6 - 0.0 - - 10 - - - -
19/05:00pm 22.7 ESE 11 18 1022.2 - 0.0 - - 10 - - - -
19/04:30pm 23.1 ESE 12 20 1021.9 - 0.0 - - 10 - - - -
19/04:00pm 23.6 E 10 15 1021.7 - 0.0 - Partly cloudy 10 - - - -
19/03:30pm 23.9 ESE 13 23 1021.7 - 0.0 - Partly cloudy 10 - - - -
19/03:00pm 23.7 ESE 13 23 1021.5 - 0.0 - Mostly clear 10 - - - -
19/02:30pm 24.4 ESE 13 21 1021.7 - 0.0 - Partly cloudy 10 - - - -
19/02:00pm 24.9 ESE 13 18 1021.8 - 0.0 - Partly cloudy 10 - - - -
19/01:30pm 25.0 ESE 14 22 1022.2 - 0.0 - Partly cloudy 10 - - - -
19/01:00pm 24.0 ESE 15 23 1022.4 - 0.0 - Partly cloudy 10 - - - -
19/12:30pm 24.3 ESE 14 22 1022.7 - 0.0 - Partly cloudy 10 - - - -
19/12:12pm 25.4 ESE 16 26 1022.8 - 0.0 - Partly cloudy 10 - - - -
19/12:00pm 24.5 ESE 15 24 1023.0 - 0.0 - Partly cloudy 10 - - - -
19/11:30am 25.8 ESE 15 23 1023.3 - 0.0 - Partly cloudy 10 - - - -
19/11:22am 25.1 ESE 15 26 1023.5 - 0.0 - Partly cloudy 10 - - - -
19/11:00am 23.7 ESE 14 21 1023.6 - 0.0 - Partly cloudy 10 - - - -
19/10:32am 24.2 ESE 15 25 1023.8 - 0.0 - Partly cloudy 10 - - - -
19/10:30am 24.9 ESE 14 24 1023.8 - 0.0 - Partly cloudy 10 - - - -
19/10:00am 23.6 ESE 15 23 1024.0 - 0.0 - Partly cloudy 10 - - - -
19/09:33am 23.6 ESE 15 25 1024.1 - 0.0 - Partly cloudy 10 - - - -
19/09:30am 24.5 ESE 14 25 1024.1 - 0.0 - Partly cloudy 10 - - - -
19/09:20am 24.2 ESE 15 25 1024.1 - 0.0 - Partly cloudy 10 - - - -
19/09:00am 24.4 ESE 13 21 1024.1 - 0.0 - Mostly clear 10 - - - -
19/08:30am 23.3 ESE 16 24 1024.3 - 0.0 - Partly cloudy 10 - - - -
19/08:00am 23.2 ESE 13 18 1024.2 - 0.0 - - 10 - - - -
19/07:30am 22.2 ESE 12 21 1023.8 - 0.0 - Cloudy 10 - - - -
19/07:00am 21.5 SE 9 18 1023.6 - 0.0 - Partly cloudy 10 - - - -
19/06:30am 21.2 ESE 8 14 1023.2 - 0.0 - Partly cloudy 10 - - - -
19/06:00am 20.4 SE 6 10 1022.9 - 0.0 - Partly cloudy 10 - - - -
19/05:30am 19.0 SE 5 7 1022.6 - 0.0 - Partly cloudy 10 - - - -
19/05:00am 18.3 S 3 5 1022.3 - 0.0 - Partly cloudy 10 - - - -
19/04:44am 18.2 CALM 0 3 1022.3 - 0.0 - Partly cloudy 10 - - - -
19/04:30am 18.9 SSE 3 5 1022.3 - 0.0 - Partly cloudy 7 - - - -
19/04:29am 18.9 SSE 4 5 1022.3 - 0.0 - Partly cloudy 7 - - - -
19/04:00am 19.5 SE 5 7 1022.2 - 0.0 - - 10 - - - -
19/03:30am 20.2 ESE 6 11 1022.2 - 0.0 - - 10 - - - -
19/03:00am 21.0 ESE 9 15 1022.1 - 0.0 - Partly cloudy 10 - - - -
19/02:30am 20.7 ESE 8 12 1022.1 - 0.0 - Partly cloudy 10 - - - -
19/02:00am 20.8 ESE 7 12 1022.3 - 0.0 - Partly cloudy 10 - - - -
19/01:30am 21.0 E 7 13 1022.4 - 0.0 - Partly cloudy 10 - - - -
19/01:00am 20.9 ESE 6 10 1022.8 - 0.0 - Partly cloudy 10 - - - -
19/12:30am 21.1 ESE 7 13 1022.9 - 0.0 - Partly cloudy 10 - - - -
19/12:00am 21.5 ESE 9 17 1023.1 - 0.0 - Cloudy 10 - - - -
 
Date/Time
EST
Temp

°C
Wind Pressure Rain
since 9am
mm
Weather Cloud Vis
km
Sea
Height
m
Swell
Dir
 
Speed
knots
Gust
knots
hPa Trend Height
m
Period
s
Dir
18/11:30pm 21.3 ESE 8 15 1023.4 - 0.0 - Partly cloudy 10 - - - -
18/11:00pm 21.3 ESE 7 11 1023.5 - 0.0 - Partly cloudy 10 - - - -
18/10:30pm 21.4 ESE 8 13 1023.7 - 0.0 - Partly cloudy 10 - - - -
18/10:00pm 21.4 ESE 8 13 1023.6 - 0.0 - Partly cloudy 10 - - - -
18/09:30pm 21.5 ESE 9 13 1023.7 - 0.0 - Partly cloudy 10 - - - -
18/09:00pm 21.1 ESE 6 11 1023.6 - 0.0 - Partly cloudy 10 - - - -
18/08:30pm 21.1 ESE 6 9 1023.3 - 0.0 - - 10 - - - -
18/08:00pm 21.4 ESE 8 11 1023.1 - 0.0 - - 10 - - - -
18/07:30pm 21.0 ESE 6 9 1022.6 - 0.0 - - 10 - - - -
18/07:00pm 21.3 ESE 7 11 1022.4 - 0.0 - - 10 - - - -
18/06:30pm 21.3 ESE 5 10 1022.1 - 0.0 - Partly cloudy 10 - - - -
18/06:00pm 21.8 E 8 14 1021.7 - 0.0 - - 10 - - - -
18/05:30pm 22.5 ESE 9 13 1021.3 - 0.0 - - 10 - - - -
18/05:00pm 23.4 ESE 11 17 1020.7 - 0.0 - - 10 - - - -
18/04:30pm 23.7 ESE 10 15 1020.4 - 0.0 - - 10 - - - -
18/04:00pm 24.2 ESE 11 17 1020.4 - 0.0 - Partly cloudy 10 - - - -
18/03:30pm 24.0 ESE 11 17 1020.4 - 0.0 - Partly cloudy 10 - - - -
18/03:00pm 24.7 SE 11 16 1020.3 - 0.0 - Mostly clear 10 - - - -
18/02:30pm 24.7 ESE 13 20 1020.6 - 0.0 - Partly cloudy 10 - - - -
18/02:00pm 24.2 ESE 12 21 1020.9 - 0.0 - Partly cloudy 10 - - - -
18/01:30pm 26.2 ESE 11 20 1020.9 - 0.0 - Partly cloudy 10 - - - -
18/01:00pm 25.2 ESE 13 20 1021.2 - 0.0 - Partly cloudy 10 - - - -
18/12:30pm 25.8 ESE 14 20 1021.4 - 0.0 - - 10 - - - -
18/12:00pm 26.7 ESE 12 21 1021.8 - 0.0 - - 10 - - - -
18/11:30am 25.8 ESE 12 20 1022.1 - 0.0 - - 10 - - - -
18/11:00am 25.2 SE 12 19 1022.3 - 0.0 - Partly cloudy 10 - - - -
18/10:30am 25.6 SE 11 19 1022.5 - 0.0 - Partly cloudy 10 - - - -
18/10:00am 24.7 ESE 10 16 1022.7 - 0.0 - Partly cloudy 10 - - - -
18/09:30am 24.6 SE 13 21 1022.8 - 0.0 - Partly cloudy 10 - - - -
18/09:00am 24.7 ESE 11 18 1022.5 - 0.0 - Mostly clear 10 - - - -
18/08:30am 24.5 SE 10 15 1022.3 - 0.0 - Partly cloudy 10 - - - -
18/08:00am 24.1 ESE 10 16 1022.1 - 0.0 - - 10 - - - -
18/07:30am 22.9 SE 6 11 1021.9 - 0.0 - - 10 - - - -
18/07:00am 20.3 SSE 4 5 1021.4 - 0.0 - - 10 - - - -
18/06:30am 17.8 SSE 4 5 1021.0 - 0.0 - - 10 - - - -
18/06:00am 13.1 S 3 4 1020.5 - 0.0 - - 10 - - - -
18/05:30am 10.7 S 1 3 1020.1 - 0.0 - - 10 - - - -
18/05:00am 10.8 CALM 0 1 1019.8 - 0.0 - - 10 - - - -
18/04:30am 10.8 SE 3 3 1019.4 - 0.0 - - 10 - - - -

Other Formats:

Comma delimited format used in spreadsheet applications
http://www.bom.gov.au/fwo/IDQ60701/IDQ60701.94370.axf

JavaScript Object Notation format (JSON) in row-major order
http://www.bom.gov.au/fwo/IDQ60701/IDQ60701.94370.json